Time;durP1;ratioP1;P1;durP2;ratioP2;P2;SDS_P1;SDS_P2;PMS_P1;PMS_P2;Temp;Humidity;BMP_temperature;BMP_pressure;BME280_temperature;BME280_humidity;BME280_pressure;Samples;Min_cycle;Max_cycle;Signal;HPM_P1;HPM_P2
2021/07/01 00:01:51;;;;;;;5.07;4.30;;;23.10;99.90;;;;;;5137563;27;20443;-67
2021/07/01 00:04:17;;;;;;;4.73;4.33;;;23.00;99.90;;;;;;5137137;27;20382;-71
2021/07/01 00:06:43;;;;;;;4.50;4.10;;;23.10;99.90;;;;;;5136851;27;20428;-71
2021/07/01 00:09:15;;;;;;;5.40;4.40;;;23.00;99.90;;;;;;5118459;27;20759;-72
2021/07/01 00:11:49;;;;;;;4.87;4.17;;;23.00;99.90;;;;;;5118668;27;20730;-71
2021/07/01 00:14:18;;;;;;;11.20;5.00;;;23.00;99.90;;;;;;5136793;27;20547;-71
2021/07/01 00:16:48;;;;;;;5.90;4.60;;;23.00;99.90;;;;;;5137224;27;20483;-68
2021/07/01 00:19:14;;;;;;;4.30;3.90;;;22.90;99.90;;;;;;5136743;27;20403;-71
2021/07/01 00:21:40;;;;;;;4.60;4.20;;;22.90;99.90;;;;;;5136653;27;20491;-71
2021/07/01 00:24:05;;;;;;;4.90;4.50;;;22.80;99.90;;;;;;5118238;27;20447;-67
2021/07/01 00:26:31;;;;;;;6.30;4.70;;;22.80;99.90;;;;;;5136948;27;20203;-71
2021/07/01 00:28:57;;;;;;;6.53;4.40;;;22.80;99.90;;;;;;5136586;27;20167;-68
2021/07/01 00:31:23;;;;;;;5.80;4.30;;;22.80;99.90;;;;;;5118160;27;20210;-68
2021/07/01 00:33:49;;;;;;;5.73;4.80;;;22.80;99.90;;;;;;5136343;27;20558;-71
2021/07/01 00:36:14;;;;;;;5.47;4.47;;;22.70;99.90;;;;;;5136674;27;20451;-71
2021/07/01 00:38:40;;;;;;;5.03;4.50;;;22.70;99.90;;;;;;5135870;27;20182;-71
2021/07/01 00:41:06;;;;;;;4.93;4.53;;;22.70;99.90;;;;;;5136491;27;20654;-71
2021/07/01 00:43:31;;;;;;;7.40;4.60;;;22.60;99.90;;;;;;5117877;27;20549;-67
2021/07/01 00:45:57;;;;;;;6.30;4.70;;;22.60;99.90;;;;;;5136319;27;20237;-71
2021/07/01 00:48:22;;;;;;;7.00;4.83;;;22.50;99.90;;;;;;5136217;27;20297;-68
2021/07/01 00:50:51;;;;;;;4.47;4.07;;;22.50;99.90;;;;;;5136213;27;20195;-69
2021/07/01 00:53:17;;;;;;;5.27;3.43;;;22.40;99.90;;;;;;5135851;27;20282;-68
2021/07/01 00:55:43;;;;;;;9.63;4.63;;;22.40;99.90;;;;;;5136196;27;20440;-67
2021/07/01 00:58:08;;;;;;;4.80;3.63;;;22.30;99.90;;;;;;5136044;27;20171;-68
2021/07/01 01:00:47;;;;;;;5.93;4.67;;;22.30;99.90;;;;;;5136147;27;20457;-68
2021/07/01 01:03:13;;;;;;;4.00;3.60;;;22.30;99.90;;;;;;5135952;27;20608;-71
2021/07/01 01:05:38;;;;;;;4.50;4.10;;;22.30;99.90;;;;;;5135977;27;20439;-67
2021/07/01 01:08:04;;;;;;;4.40;4.07;;;22.30;99.90;;;;;;5135757;27;20167;-70
2021/07/01 01:10:30;;;;;;;4.90;3.60;;;22.30;99.90;;;;;;5117294;27;20195;-71
2021/07/01 01:12:55;;;;;;;6.17;4.47;;;22.30;99.90;;;;;;5117327;27;20214;-70
2021/07/01 01:15:21;;;;;;;7.30;3.97;;;22.20;99.90;;;;;;5135711;27;20206;-68
2021/07/01 01:17:47;;;;;;;5.33;4.17;;;22.20;99.90;;;;;;5135752;27;20543;-71
2021/07/01 01:20:14;;;;;;;5.23;4.40;;;22.20;99.90;;;;;;5117109;27;20289;-67
2021/07/01 01:22:40;;;;;;;8.17;4.10;;;22.20;99.90;;;;;;5135497;27;20188;-68
2021/07/01 01:25:07;;;;;;;4.30;3.90;;;22.20;99.90;;;;;;5135396;27;20450;-71
2021/07/01 01:27:32;;;;;;;4.50;4.07;;;22.10;99.90;;;;;;5117045;27;20874;-71
2021/07/01 01:29:58;;;;;;;6.20;4.30;;;22.10;99.90;;;;;;5116961;27;20447;-68
2021/07/01 01:32:24;;;;;;;4.63;3.97;;;22.00;99.90;;;;;;5135306;27;20163;-69
2021/07/01 01:34:49;;;;;;;4.53;4.10;;;22.00;99.90;;;;;;5116770;27;20175;-72
2021/07/01 01:37:15;;;;;;;5.60;3.70;;;22.00;99.90;;;;;;5116860;27;20182;-68
2021/07/01 01:39:49;;;;;;;4.30;3.53;;;21.90;99.90;;;;;;5135184;27;20167;-70
2021/07/01 01:42:15;;;;;;;4.40;4.00;;;21.90;99.90;;;;;;5135277;27;20628;-71
2021/07/01 01:44:48;;;;;;;5.90;4.30;;;21.80;99.90;;;;;;5135141;27;20402;-72
2021/07/01 01:47:18;;;;;;;5.17;4.70;;;21.80;99.90;;;;;;5116919;28;20168;-67
2021/07/01 01:49:48;;;;;;;5.30;4.53;;;21.80;99.90;;;;;;5134887;27;20433;-71
2021/07/01 01:52:14;;;;;;;4.20;3.80;;;21.80;99.90;;;;;;5131571;27;20456;-67
2021/07/01 01:54:44;;;;;;;4.67;4.23;;;21.70;99.90;;;;;;5134918;27;20454;-67
2021/07/01 01:57:09;;;;;;;5.33;3.90;;;21.70;99.90;;;;;;5116782;27;20415;-71
2021/07/01 01:59:35;;;;;;;5.40;4.40;;;21.60;99.90;;;;;;5116360;27;20780;-70
2021/07/01 02:02:01;;;;;;;5.60;4.40;;;21.50;99.90;;;;;;5134795;27;20206;-71
2021/07/01 02:04:27;;;;;;;5.40;4.90;;;21.50;99.90;;;;;;5134864;27;20177;-67
2021/07/01 02:06:54;;;;;;;7.33;3.90;;;21.40;99.90;;;;;;5135184;27;20435;-68
2021/07/01 02:09:21;;;;;;;4.20;3.90;;;21.40;99.90;;;;;;5134926;27;20644;-68
2021/07/01 02:11:47;;;;;;;4.03;3.50;;;21.30;99.90;;;;;;5135125;27;20485;-68
2021/07/01 02:14:13;;;;;;;6.03;3.77;;;21.30;99.90;;;;;;5134679;27;20458;-67
2021/07/01 02:16:38;;;;;;;4.53;4.23;;;21.20;99.90;;;;;;5135122;28;20496;-71
2021/07/01 02:19:04;;;;;;;3.73;3.43;;;21.20;99.90;;;;;;5116296;28;20175;-67
2021/07/01 02:21:30;;;;;;;3.40;3.20;;;21.10;99.90;;;;;;5134952;28;20194;-67
2021/07/01 02:23:55;;;;;;;6.03;3.63;;;21.10;99.90;;;;;;5134580;28;20640;-68
2021/07/01 02:26:21;;;;;;;4.00;3.60;;;21.10;99.90;;;;;;5134916;28;20198;-71
2021/07/01 02:28:47;;;;;;;4.93;3.33;;;21.00;99.90;;;;;;5116190;28;20178;-71
2021/07/01 02:31:12;;;;;;;4.33;3.10;;;20.90;99.90;;;;;;5134427;28;20187;-67
2021/07/01 02:33:38;;;;;;;4.70;2.87;;;20.90;99.90;;;;;;5134502;28;20203;-68
2021/07/01 02:36:04;;;;;;;3.90;2.60;;;20.80;99.90;;;;;;5134714;28;20220;-71
2021/07/01 02:38:30;;;;;;;3.17;2.87;;;20.80;99.90;;;;;;5116134;28;20548;-72
2021/07/01 02:40:55;;;;;;;4.07;3.30;;;20.70;99.90;;;;;;5116106;28;20431;-71
2021/07/01 02:43:21;;;;;;;4.10;3.43;;;20.60;99.90;;;;;;5116083;28;20640;-69
2021/07/01 02:45:47;;;;;;;4.27;2.50;;;20.50;99.90;;;;;;5134561;28;20235;-67
2021/07/01 02:48:12;;;;;;;2.80;2.60;;;20.50;99.90;;;;;;5134456;28;20632;-68
2021/07/01 02:50:38;;;;;;;3.30;3.10;;;20.40;99.90;;;;;;5134622;28;20293;-69
2021/07/01 02:53:04;;;;;;;4.27;3.60;;;20.40;99.90;;;;;;5134077;28;20586;-67
2021/07/01 02:55:29;;;;;;;3.43;3.13;;;20.40;99.90;;;;;;5134492;28;20203;-71
2021/07/01 02:57:55;;;;;;;3.50;3.20;;;20.40;99.90;;;;;;5134331;28;20178;-72
2021/07/01 03:00:21;;;;;;;3.60;3.30;;;20.50;99.90;;;;;;5115953;28;20690;-67
2021/07/01 03:02:46;;;;;;;3.77;3.03;;;20.50;99.90;;;;;;5136387;27;20170;-70
2021/07/01 03:05:12;;;;;;;4.00;3.70;;;20.50;99.90;;;;;;5119680;27;20697;-67
2021/07/01 03:07:38;;;;;;;3.40;2.97;;;20.50;99.90;;;;;;5138273;27;20178;-71
2021/07/01 03:10:05;;;;;;;4.20;3.70;;;20.60;99.90;;;;;;5119576;27;20206;-67
2021/07/01 03:12:30;;;;;;;4.00;3.37;;;20.60;99.90;;;;;;5138002;27;20167;-68
2021/07/01 03:14:56;;;;;;;5.53;3.47;;;20.60;99.90;;;;;;5137926;27;20421;-67
2021/07/01 03:17:22;;;;;;;5.10;3.83;;;20.50;99.90;;;;;;5119618;27;20551;-71
2021/07/01 03:19:47;;;;;;;5.13;3.40;;;20.50;99.90;;;;;;5119342;27;20181;-71
2021/07/01 03:22:14;;;;;;;9.57;4.13;;;20.50;99.90;;;;;;5137931;27;20195;-67
2021/07/01 03:24:40;;;;;;;4.50;3.37;;;20.50;99.90;;;;;;5137762;27;20170;-67
2021/07/01 03:27:06;;;;;;;4.03;3.73;;;20.40;99.90;;;;;;5137698;27;20428;-71
2021/07/01 03:29:32;;;;;;;5.20;3.83;;;20.40;99.90;;;;;;5137856;27;20937;-70
2021/07/01 03:31:58;;;;;;;4.83;3.57;;;20.40;99.90;;;;;;5119381;27;20463;-68
2021/07/01 03:34:24;;;;;;;3.90;3.50;;;20.30;99.90;;;;;;5119140;27;20544;-69
2021/07/01 03:36:49;;;;;;;4.80;4.17;;;20.30;99.90;;;;;;5137981;27;20205;-71
2021/07/01 03:39:15;;;;;;;4.50;3.33;;;20.30;99.90;;;;;;5137561;27;20170;-71
2021/07/01 03:41:41;;;;;;;5.00;2.87;;;20.30;99.90;;;;;;5137995;27;20209;-71
2021/07/01 03:44:09;;;;;;;3.07;2.87;;;20.40;99.90;;;;;;5137658;27;20935;-68
2021/07/01 03:46:37;;;;;;;3.37;3.10;;;20.40;99.90;;;;;;5137788;27;20202;-67
2021/07/01 03:49:03;;;;;;;3.53;3.23;;;20.40;99.90;;;;;;5137310;27;20478;-67
2021/07/01 03:51:29;;;;;;;3.00;2.80;;;20.40;99.90;;;;;;5137244;27;20482;-68
2021/07/01 03:53:54;;;;;;;2.90;2.70;;;20.50;99.90;;;;;;5118640;27;20566;-71
2021/07/01 03:56:20;;;;;;;2.60;2.40;;;20.50;99.90;;;;;;5137583;27;20619;-71
2021/07/01 03:58:45;;;;;;;2.87;2.67;;;20.50;99.90;;;;;;5137022;27;20184;-69
2021/07/01 04:01:11;;;;;;;2.93;2.30;;;20.50;99.90;;;;;;5137294;27;20212;-67
2021/07/01 04:03:37;;;;;;;3.00;2.70;;;20.50;99.90;;;;;;5137112;27;20658;-71
2021/07/01 04:06:02;;;;;;;2.70;2.47;;;20.50;99.90;;;;;;5136841;27;20198;-67
2021/07/01 04:08:28;;;;;;;2.50;2.30;;;20.50;99.90;;;;;;5136990;27;20216;-70
2021/07/01 04:10:54;;;;;;;2.67;2.47;;;20.50;99.90;;;;;;5136884;27;20205;-68
2021/07/01 04:13:20;;;;;;;2.70;2.50;;;20.60;99.90;;;;;;5136450;27;20201;-69
2021/07/01 04:15:45;;;;;;;2.60;2.40;;;20.60;99.90;;;;;;5136651;27;20209;-71
2021/07/01 04:18:13;;;;;;;2.47;2.27;;;20.60;99.90;;;;;;5118377;27;20183;-68
2021/07/01 04:20:39;;;;;;;2.97;2.70;;;20.60;99.90;;;;;;5118032;27;20210;-72
2021/07/01 04:23:05;;;;;;;4.00;2.63;;;20.70;99.90;;;;;;5136683;27;20939;-71
2021/07/01 04:25:32;;;;;;;5.10;2.10;;;20.70;99.90;;;;;;5118157;27;20487;-67
2021/07/01 04:27:57;;;;;;;2.43;2.23;;;20.80;99.90;;;;;;5136612;27;20409;-67
2021/07/01 04:30:23;;;;;;;2.30;2.10;;;20.80;99.90;;;;;;5136973;27;20447;-67
2021/07/01 04:32:49;;;;;;;2.60;2.40;;;20.90;99.90;;;;;;5136488;27;20676;-72
2021/07/01 04:35:14;;;;;;;2.63;2.00;;;20.90;99.90;;;;;;5136446;27;20206;-68
2021/07/01 04:37:40;;;;;;;2.60;2.40;;;21.00;99.90;;;;;;5136518;27;20171;-71
2021/07/01 04:40:09;;;;;;;2.33;2.13;;;21.00;99.90;;;;;;5117762;27;20203;-68
2021/07/01 04:42:35;;;;;;;2.27;2.07;;;21.00;99.90;;;;;;5135598;27;20709;-68
2021/07/01 04:45:02;;;;;;;2.50;2.30;;;21.00;99.90;;;;;;5133992;27;20430;-71
2021/07/01 04:47:27;;;;;;;3.00;2.67;;;21.10;99.90;;;;;;5134029;27;20486;-69
2021/07/01 04:49:53;;;;;;;4.23;2.40;;;21.10;99.90;;;;;;5133964;27;20495;-68
2021/07/01 04:52:19;;;;;;;5.53;2.77;;;21.10;99.90;;;;;;5133758;27;20173;-72
2021/07/01 04:54:44;;;;;;;2.60;2.40;;;21.10;99.90;;;;;;5133841;27;20203;-71
2021/07/01 04:57:10;;;;;;;1.97;1.83;;;21.10;99.90;;;;;;5115437;27;20186;-68
2021/07/01 04:59:35;;;;;;;2.00;1.90;;;21.10;99.90;;;;;;5133235;27;20171;-67
2021/07/01 05:02:01;;;;;;;2.10;1.90;;;21.20;99.90;;;;;;5135633;27;20206;-67
2021/07/01 05:04:27;;;;;;;2.77;2.57;;;21.20;99.90;;;;;;5135513;27;20575;-72
2021/07/01 05:06:53;;;;;;;2.33;2.13;;;21.20;99.90;;;;;;5135558;27;20222;-71
2021/07/01 05:09:18;;;;;;;2.33;2.13;;;21.20;99.90;;;;;;5116884;27;20171;-72
2021/07/01 05:11:44;;;;;;;3.03;2.10;;;21.20;99.90;;;;;;5135980;27;20199;-71
2021/07/01 05:14:10;;;;;;;5.40;2.30;;;21.30;99.90;;;;;;5135280;27;20199;-71
2021/07/01 05:16:35;;;;;;;1.90;1.80;;;21.30;99.90;;;;;;5116284;27;20356;-72
2021/07/01 05:19:02;;;;;;;2.37;2.17;;;21.40;99.90;;;;;;5116973;27;20187;-70
2021/07/01 05:21:28;;;;;;;2.13;2.00;;;21.40;99.90;;;;;;5135871;27;20187;-73
2021/07/01 05:23:54;;;;;;;1.90;1.80;;;21.50;99.90;;;;;;5135553;27;20435;-68
2021/07/01 05:26:20;;;;;;;2.20;2.00;;;21.50;99.90;;;;;;5134965;27;20516;-69
2021/07/01 05:28:45;;;;;;;1.87;1.77;;;21.50;99.90;;;;;;5135402;27;20433;-66
2021/07/01 05:31:11;;;;;;;3.40;2.03;;;21.60;99.90;;;;;;5134706;27;20802;-66
2021/07/01 05:33:37;;;;;;;2.43;2.23;;;21.60;99.90;;;;;;5115455;27;20683;-65
2021/07/01 05:36:03;;;;;;;2.03;1.93;;;21.70;99.90;;;;;;5135372;27;20507;-66
2021/07/01 05:38:29;;;;;;;3.43;3.10;;;21.70;99.90;;;;;;5135199;27;20199;-66
2021/07/01 05:40:55;;;;;;;6.93;4.60;;;21.70;99.90;;;;;;5132359;27;20501;-68
2021/07/01 05:43:20;;;;;;;4.40;2.40;;;21.80;99.90;;;;;;5115685;27;20178;-68
2021/07/01 05:45:46;;;;;;;2.23;2.00;;;21.90;99.90;;;;;;5132537;27;20243;-74
2021/07/01 05:48:12;;;;;;;4.27;1.90;;;21.90;99.90;;;;;;5123503;27;20540;-69
2021/07/01 05:50:43;;;;;;;1.73;1.63;;;21.90;99.90;;;;;;5134508;27;20203;-70
2021/07/01 05:53:11;;;;;;;2.27;2.07;;;22.00;99.90;;;;;;5131874;27;20831;-70
2021/07/01 05:55:38;;;;;;;2.27;2.07;;;22.10;99.90;;;;;;5132422;27;20494;-66
2021/07/01 05:58:04;;;;;;;2.73;2.53;;;22.10;99.90;;;;;;5115762;27;20492;-70
2021/07/01 06:00:30;;;;;;;2.67;2.20;;;22.20;99.90;;;;;;5133412;27;20205;-70
2021/07/01 06:02:56;;;;;;;2.07;1.97;;;22.20;99.90;;;;;;5134502;27;20187;-66
2021/07/01 06:05:22;;;;;;;2.23;1.90;;;22.30;99.90;;;;;;5114751;27;20542;-67
2021/07/01 06:07:52;;;;;;;2.90;1.83;;;22.30;99.90;;;;;;5118984;27;20498;-70
2021/07/01 06:10:18;;;;;;;3.10;2.03;;;22.40;99.90;;;;;;5133105;27;20226;-71
2021/07/01 06:12:44;;;;;;;2.90;2.50;;;22.50;99.90;;;;;;5134297;27;20406;-67
2021/07/01 06:15:11;;;;;;;2.00;1.90;;;22.50;99.90;;;;;;5134519;27;20802;-71
2021/07/01 06:17:37;;;;;;;2.00;1.90;;;22.50;99.90;;;;;;5133490;28;20419;-68
2021/07/01 06:20:07;;;;;;;3.20;2.20;;;22.60;99.90;;;;;;5115857;28;20554;-71
2021/07/01 06:22:33;;;;;;;2.90;2.20;;;22.70;99.90;;;;;;5115394;28;20448;-71
2021/07/01 06:25:00;;;;;;;2.40;2.00;;;22.70;99.90;;;;;;5134050;27;20426;-67
2021/07/01 06:27:37;;;;;;;2.07;1.87;;;22.80;99.90;;;;;;5132034;28;20418;-72
2021/07/01 06:30:14;;;;;;;2.43;2.23;;;22.80;99.90;;;;;;5128472;28;20462;-68
2021/07/01 06:32:46;;;;;;;3.27;1.80;;;22.80;99.90;;;;;;5133710;28;20816;-71
2021/07/01 06:35:19;;;;;;;2.00;1.90;;;22.90;99.90;;;;;;5133500;27;20446;-71
2021/07/01 06:37:46;;;;;;;2.67;2.00;;;23.00;99.90;;;;;;5128037;27;20416;-71
2021/07/01 06:40:13;;;;;;;2.20;2.00;;;23.00;99.90;;;;;;5133739;27;20537;-72
2021/07/01 06:42:48;;;;;;;3.33;2.03;;;23.10;99.90;;;;;;5133496;27;20422;-71
2021/07/01 06:45:16;;;;;;;2.67;2.00;;;23.10;99.90;;;;;;5135325;27;20486;-71
2021/07/01 06:47:46;;;;;;;2.00;1.90;;;23.20;99.90;;;;;;5119428;27;20414;-67
2021/07/01 06:50:13;;;;;;;4.00;2.00;;;23.20;99.90;;;;;;5118681;27;20849;-73
2021/07/01 06:52:44;;;;;;;2.87;1.80;;;23.20;99.90;;;;;;5125194;27;20512;-68
2021/07/01 06:55:15;;;;;;;2.57;2.37;;;23.30;99.90;;;;;;5126013;27;20967;-72
2021/07/01 06:57:41;;;;;;;2.17;2.07;;;23.30;99.90;;;;;;5121947;27;20428;-68
2021/07/01 07:00:09;;;;;;;2.67;1.70;;;23.40;99.90;;;;;;5131959;27;20488;-68
2021/07/01 07:02:36;;;;;;;2.40;2.20;;;23.50;99.90;;;;;;5136888;27;20428;-72
2021/07/01 07:05:07;;;;;;;1.83;1.73;;;23.50;99.90;;;;;;5129596;27;20941;-72
2021/07/01 07:07:34;;;;;;;2.10;1.90;;;23.60;99.90;;;;;;5132755;27;20395;-68
2021/07/01 07:10:04;;;;;;;2.10;2.00;;;23.70;99.90;;;;;;5134624;27;20435;-71
2021/07/01 07:12:36;;;;;;;2.03;1.83;;;23.80;99.90;;;;;;5122068;27;20418;-68
2021/07/01 07:15:02;;;;;;;1.70;1.60;;;23.90;99.90;;;;;;5111837;27;20439;-71
2021/07/01 07:17:29;;;;;;;5.23;4.83;;;23.90;99.90;;;;;;5119086;27;20424;-68
2021/07/01 07:20:00;;;;;;;2.30;2.20;;;23.90;99.90;;;;;;5115700;27;20444;-71
2021/07/01 07:22:33;;;;;;;2.70;2.30;;;24.00;99.90;;;;;;5127745;27;20409;-68
2021/07/01 07:25:04;;;;;;;2.90;2.20;;;24.00;99.90;;;;;;5134539;27;20437;-69
2021/07/01 07:27:31;;;;;;;2.20;2.00;;;24.10;99.90;;;;;;5134005;27;20501;-69
2021/07/01 07:29:59;;;;;;;2.85;2.00;;;24.10;99.90;;;;;;5113555;27;20418;-71
2021/07/01 07:32:28;;;;;;;2.23;1.87;;;24.20;99.90;;;;;;5116624;27;20192;-68
2021/07/01 07:34:53;;;;;;;2.17;2.00;;;24.30;99.90;;;;;;5112710;27;20497;-69
2021/07/01 07:37:19;;;;;;;2.07;1.90;;;24.40;99.90;;;;;;5116077;27;20500;-71
2021/07/01 07:39:47;;;;;;;2.13;1.93;;;24.50;99.90;;;;;;5112691;27;20190;-71
2021/07/01 07:42:14;;;;;;;3.03;2.50;;;24.60;99.90;;;;;;5132697;27;20467;-68
2021/07/01 07:44:41;;;;;;;2.30;2.00;;;24.60;99.90;;;;;;5115964;27;20448;-68
2021/07/01 07:47:12;;;;;;;2.63;2.00;;;24.70;99.90;;;;;;5127007;27;20459;-68
2021/07/01 07:49:38;;;;;;;2.73;1.70;;;24.80;99.90;;;;;;5134986;27;20417;-71
2021/07/01 07:52:08;;;;;;;2.30;2.10;;;24.90;99.90;;;;;;5117285;27;20438;-71
2021/07/01 07:54:50;;;;;;;2.10;2.00;;;25.00;99.90;;;;;;5120666;27;20476;-68
2021/07/01 07:57:18;;;;;;;2.27;2.07;;;25.00;99.90;;;;;;5134717;27;20422;-69
2021/07/01 07:59:50;;;;;;;2.80;2.23;;;25.10;99.90;;;;;;5114184;27;20476;-68
2021/07/01 08:02:46;;;;;;;2.90;2.30;;;25.20;99.90;;;;;;5114215;27;20951;-67
2021/07/01 08:05:18;;;;;;;2.53;2.20;;;25.30;99.90;;;;;;5110857;27;20890;-70
2021/07/01 08:07:45;;;;;;;2.37;1.83;;;25.30;99.90;;;;;;5132880;27;20446;-68
2021/07/01 08:10:14;;;;;;;4.00;2.13;;;25.40;99.90;;;;;;5113334;27;20870;-70
2021/07/01 08:12:46;;;;;;;2.30;1.97;;;25.40;99.90;;;;;;5109603;27;20428;-68
2021/07/01 08:15:14;;;;;;;2.87;2.63;;;25.50;99.90;;;;;;5132726;27;20445;-70
2021/07/01 08:17:42;;;;;;;4.40;2.80;;;25.60;99.90;;;;;;5113634;27;20427;-68
2021/07/01 08:20:11;;;;;;;2.50;2.30;;;25.70;99.90;;;;;;5119076;27;20462;-71
2021/07/01 08:22:39;;;;;;;2.47;2.20;;;25.80;99.90;;;;;;5121046;27;20480;-68
2021/07/01 08:25:05;;;;;;;2.40;2.20;;;25.80;99.90;;;;;;5133764;27;21013;-68
2021/07/01 08:27:32;;;;;;;2.97;2.73;;;25.90;99.90;;;;;;5135053;27;20927;-70
2021/07/01 08:29:58;;;;;;;3.87;3.57;;;26.00;99.90;;;;;;5113591;27;20446;-71
2021/07/01 08:32:24;;;;;;;2.93;2.03;;;26.10;99.90;;;;;;5129450;27;20408;-69
2021/07/01 08:34:50;;;;;;;4.50;2.83;;;26.10;99.90;;;;;;5125984;27;20467;-68
2021/07/01 08:37:21;;;;;;;3.47;2.77;;;26.20;99.90;;;;;;5128026;27;20434;-70
2021/07/01 08:39:49;;;;;;;2.27;2.07;;;26.20;99.90;;;;;;5128713;27;20751;-70
2021/07/01 08:42:17;;;;;;;3.47;2.30;;;26.30;99.90;;;;;;5129996;27;20459;-67
2021/07/01 08:44:45;;;;;;;3.33;2.27;;;26.30;99.90;;;;;;5126112;27;20446;-67
2021/07/01 08:47:16;;;;;;;7.73;2.60;;;26.40;99.90;;;;;;5130834;27;20834;-67
2021/07/01 08:49:55;;;;;;;4.57;2.40;;;26.50;99.90;;;;;;5126427;27;20428;-70
2021/07/01 08:52:32;;;;;;;2.10;1.90;;;26.50;99.90;;;;;;5104576;27;20426;-71
2021/07/01 08:55:05;;;;;;;3.00;2.30;;;26.60;99.90;;;;;;5111641;27;20490;-71
2021/07/01 08:57:36;;;;;;;5.10;2.10;;;26.70;99.90;;;;;;5122376;27;20785;-68
2021/07/01 09:00:12;;;;;;;2.95;1.98;;;26.80;99.90;;;;;;5128237;27;20411;-68
2021/07/01 09:02:43;;;;;;;2.70;2.20;;;26.90;99.90;;;;;;5128446;27;20407;-71
2021/07/01 09:05:18;;;;;;;3.10;2.20;;;27.00;99.90;;;;;;5131761;27;20293;-68
2021/07/01 09:07:51;;;;;;;1.90;1.80;;;27.00;99.90;;;;;;5120208;27;20422;-68
2021/07/01 09:10:18;;;;;;;3.30;2.10;;;27.10;99.90;;;;;;5129211;27;20845;-68
2021/07/01 09:12:52;;;;;;;2.53;1.70;;;27.10;99.90;;;;;;5127445;27;20415;-71
2021/07/01 09:15:19;;;;;;;1.63;1.53;;;27.20;99.90;;;;;;5131579;27;20446;-68
2021/07/01 09:17:48;;;;;;;3.57;2.50;;;27.30;99.90;;;;;;5133439;27;20419;-69
2021/07/01 09:20:19;;;;;;;3.47;2.10;;;27.30;99.90;;;;;;5126829;27;20467;-69
2021/07/01 09:22:50;;;;;;;9.13;2.20;;;27.40;99.90;;;;;;5130718;27;20579;-70
2021/07/01 09:25:17;;;;;;;2.73;2.00;;;27.50;99.90;;;;;;5123348;27;20450;-71
2021/07/01 09:27:49;;;;;;;1.60;1.50;;;27.60;99.90;;;;;;5111687;27;20508;-71
2021/07/01 09:30:20;;;;;;;2.40;2.20;;;27.60;99.90;;;;;;5098663;27;20610;-69
2021/07/01 09:32:46;;;;;;;2.30;1.90;;;27.70;99.90;;;;;;5131537;27;20420;-71
2021/07/01 09:35:14;;;;;;;2.07;1.93;;;27.80;99.90;;;;;;5113181;27;20466;-69
2021/07/01 09:37:45;;;;;;;2.73;2.07;;;27.90;99.90;;;;;;5131249;27;20415;-69
2021/07/01 09:40:15;;;;;;;2.40;1.97;;;28.00;99.90;;;;;;5125623;27;20447;-70
2021/07/01 09:42:41;;;;;;;2.30;1.90;;;28.00;99.90;;;;;;5103061;27;20479;-68
2021/07/01 09:45:13;;;;;;;1.87;1.60;;;28.10;99.90;;;;;;5108935;28;20467;-68
2021/07/01 09:47:44;;;;;;;3.17;1.70;;;28.10;99.90;;;;;;5131183;27;20415;-68
2021/07/01 09:50:10;;;;;;;1.70;1.60;;;28.20;99.90;;;;;;5104068;27;20551;-68
2021/07/01 09:52:44;;;;;;;3.90;1.80;;;28.30;99.90;;;;;;5131990;27;20871;-68
2021/07/01 09:55:11;;;;;;;2.37;2.17;;;28.30;99.90;;;;;;5118067;27;20464;-70
2021/07/01 09:57:44;;;;;;;2.10;1.90;;;28.40;99.90;;;;;;5125475;27;20427;-70
2021/07/01 10:00:12;;;;;;;1.93;1.83;;;28.40;99.90;;;;;;5119752;27;20448;-69
2021/07/01 10:02:40;;;;;;;1.90;1.73;;;28.40;99.90;;;;;;5132019;27;20427;-68
2021/07/01 10:05:08;;;;;;;2.10;1.77;;;28.40;99.90;;;;;;5129851;27;21055;-70
2021/07/01 10:07:47;;;;;;;1.80;1.50;;;28.50;99.90;;;;;;5132717;27;20856;-68
2021/07/01 10:10:14;;;;;;;2.20;2.00;;;28.40;99.90;;;;;;5120052;27;20447;-68
2021/07/01 10:12:59;;;;;;;4.10;2.07;;;28.50;99.90;;;;;;5129416;27;20415;-68
2021/07/01 10:15:30;;;;;;;3.23;2.03;;;28.50;99.90;;;;;;5112741;28;20532;-68
2021/07/01 10:18:14;;;;;;;3.30;2.20;;;28.60;99.90;;;;;;5130037;28;20436;-71
2021/07/01 10:20:45;;;;;;;2.03;1.83;;;28.70;99.90;;;;;;5132994;27;20495;-68
2021/07/01 10:23:40;;;;;;;1.97;1.80;;;28.70;99.80;;;;;;5130359;28;20838;-70
2021/07/01 10:26:21;;;;;;;2.00;1.67;;;28.80;99.90;;;;;;5113184;28;20973;-67
2021/07/01 10:28:58;;;;;;;8.67;2.20;;;28.80;98.80;;;;;;5108053;28;20426;-70
2021/07/01 10:31:24;;;;;;;2.30;1.37;;;28.90;99.50;;;;;;5109879;28;21114;-68
2021/07/01 10:33:58;;;;;;;1.60;1.50;;;28.80;99.70;;;;;;5112156;28;20556;-69
2021/07/01 10:36:27;;;;;;;1.80;1.70;;;28.90;99.90;;;;;;5129516;28;20457;-68
2021/07/01 10:38:54;;;;;;;3.27;1.80;;;28.90;99.80;;;;;;5131302;28;20414;-70
2021/07/01 10:41:27;;;;;;;1.67;1.57;;;28.90;99.30;;;;;;5128919;27;20448;-68
2021/07/01 10:43:54;;;;;;;1.97;1.87;;;29.00;99.90;;;;;;5125307;28;20425;-66
2021/07/01 10:46:20;;;;;;;3.13;1.70;;;29.00;97.80;;;;;;5131527;27;20509;-66
2021/07/01 10:48:56;;;;;;;2.20;1.60;;;28.90;98.10;;;;;;5110633;28;20803;-67
2021/07/01 10:51:23;;;;;;;1.50;1.40;;;29.00;98.50;;;;;;5118896;28;20202;-68
2021/07/01 10:53:49;;;;;;;2.50;1.47;;;29.00;99.90;;;;;;5130451;27;20572;-68
2021/07/01 10:56:18;;;;;;;3.53;1.30;;;29.00;99.80;;;;;;5123169;28;21057;-68
2021/07/01 10:58:52;;;;;;;1.40;1.30;;;29.00;99.50;;;;;;5107555;28;20183;-70
2021/07/01 11:01:26;;;;;;;2.80;1.20;;;28.90;97.70;;;;;;5128620;28;20452;-70
2021/07/01 11:04:10;;;;;;;1.73;1.57;;;28.90;98.40;;;;;;5128526;28;20414;-70
2021/07/01 11:06:38;;;;;;;1.20;1.20;;;28.90;96.90;;;;;;5123775;27;20483;-68
2021/07/01 11:09:06;;;;;;;1.83;1.50;;;28.80;97.40;;;;;;5128770;28;20446;-68
2021/07/01 11:11:34;;;;;;;1.40;1.30;;;28.90;98.80;;;;;;5124738;27;20756;-70
2021/07/01 11:14:07;;;;;;;2.53;1.60;;;28.90;96.30;;;;;;5110506;28;20995;-70
2021/07/01 11:16:46;;;;;;;1.57;1.30;;;28.90;96.30;;;;;;5108615;28;20567;-71
2021/07/01 11:19:18;;;;;;;1.43;1.33;;;28.90;96.90;;;;;;5130161;28;20513;-68
2021/07/01 11:21:46;;;;;;;1.57;1.47;;;29.00;98.00;;;;;;5126800;28;20935;-69
2021/07/01 11:24:17;;;;;;;3.57;1.27;;;29.00;96.40;;;;;;5119721;27;20592;-71
2021/07/01 11:26:48;;;;;;;2.70;1.20;;;29.00;96.70;;;;;;5121164;27;20465;-71
2021/07/01 11:29:15;;;;;;;1.40;1.30;;;29.10;97.90;;;;;;5128918;27;20495;-68
2021/07/01 11:31:47;;;;;;;1.40;1.30;;;29.00;95.30;;;;;;5136324;27;20541;-71
2021/07/01 11:34:18;;;;;;;1.33;1.23;;;29.10;96.50;;;;;;5118682;27;20467;-71
2021/07/01 11:36:52;;;;;;;1.83;1.00;;;29.10;95.50;;;;;;5118394;27;20973;-71
2021/07/01 11:39:27;;;;;;;2.20;1.10;;;29.10;96.30;;;;;;5135046;27;20420;-67
2021/07/01 11:41:54;;;;;;;1.27;1.13;;;29.10;95.40;;;;;;5136499;27;20471;-68
2021/07/01 11:44:21;;;;;;;2.03;1.10;;;29.10;95.70;;;;;;5128822;27;20413;-71
2021/07/01 11:46:49;;;;;;;1.20;1.10;;;29.20;94.60;;;;;;5126230;27;20552;-70
2021/07/01 11:49:15;;;;;;;0.90;0.90;;;29.20;95.40;;;;;;5131195;27;20424;-67
2021/07/01 11:51:43;;;;;;;1.17;0.90;;;29.30;95.20;;;;;;5123417;27;20480;-68
2021/07/01 11:54:09;;;;;;;1.00;1.00;;;29.30;96.80;;;;;;5111359;27;20560;-71
2021/07/01 11:56:53;;;;;;;3.73;0.90;;;29.20;98.20;;;;;;5130120;27;20461;-68
2021/07/01 11:59:25;;;;;;;1.03;0.93;;;29.20;95.60;;;;;;5112710;27;20509;-72
2021/07/01 12:01:51;;;;;;;1.27;1.00;;;29.30;97.10;;;;;;5126739;27;20453;-68
2021/07/01 12:04:18;;;;;;;1.00;0.90;;;29.30;98.10;;;;;;5129107;27;20433;-71
2021/07/01 12:06:54;;;;;;;1.13;1.03;;;29.30;97.70;;;;;;5110437;27;20476;-72
2021/07/01 12:09:21;;;;;;;0.80;0.80;;;29.30;97.90;;;;;;5130259;27;20428;-68
2021/07/01 12:12:05;;;;;;;2.43;2.23;;;29.30;98.00;;;;;;5111631;27;20462;-70
2021/07/01 12:14:36;;;;;;;1.07;1.03;;;29.30;94.50;;;;;;5131655;27;20461;-71
2021/07/01 12:17:03;;;;;;;1.07;0.90;;;29.40;94.70;;;;;;5126323;27;20457;-71
2021/07/01 12:19:59;;;;;;;0.80;0.80;;;29.50;94.40;;;;;;5106994;27;20449;-71
2021/07/01 12:22:45;;;;;;;1.80;1.00;;;29.50;93.10;;;;;;5128085;27;20431;-71
2021/07/01 12:25:31;;;;;;;0.97;0.87;;;29.50;94.90;;;;;;5112172;27;20458;-68
2021/07/01 12:28:06;;;;;;;0.77;0.77;;;29.50;93.70;;;;;;5091324;28;20442;-71
2021/07/01 12:30:58;;;;;;;2.03;1.30;;;29.60;95.30;;;;;;5123822;27;20504;-68
2021/07/01 12:33:38;;;;;;;1.23;1.10;;;29.50;95.80;;;;;;5124594;27;20456;-67
2021/07/01 12:36:15;;;;;;;1.80;1.13;;;29.50;94.80;;;;;;5133373;27;20461;-71
2021/07/01 12:39:07;;;;;;;1.27;1.17;;;29.60;94.70;;;;;;5126944;27;20422;-72
2021/07/01 12:41:55;;;;;;;1.23;1.00;;;29.60;96.60;;;;;;5130887;27;20445;-71
2021/07/01 12:44:30;;;;;;;2.27;1.00;;;29.60;92.90;;;;;;5127264;27;20414;-72
2021/07/01 12:47:01;;;;;;;0.90;0.90;;;29.70;91.90;;;;;;5125802;27;20833;-71
2021/07/01 12:49:32;;;;;;;0.80;0.80;;;29.70;94.70;;;;;;5109304;27;20419;-68
2021/07/01 12:52:06;;;;;;;1.37;0.83;;;29.70;94.70;;;;;;5111465;27;20505;-72
2021/07/01 12:54:32;;;;;;;1.20;0.77;;;29.70;91.40;;;;;;5125175;27;20470;-72
2021/07/01 12:56:57;;;;;;;1.13;1.00;;;29.70;93.50;;;;;;5107700;27;20464;-68